sensor_id;sensor_type;location;lat;lon;timestamp;P1;durP1;ratioP1;P2;durP2;ratioP2
20391;SDS011;10355;53.688;10.078;2023-11-22T00:01:22;1.75;;;0.90;;
20391;SDS011;10355;53.688;10.078;2023-11-22T00:04:06;1.67;;;1.10;;
20391;SDS011;10355;53.688;10.078;2023-11-22T00:06:50;1.02;;;0.77;;
20391;SDS011;10355;53.688;10.078;2023-11-22T00:09:32;1.08;;;0.80;;
20391;SDS011;10355;53.688;10.078;2023-11-22T00:12:15;1.25;;;0.80;;
20391;SDS011;10355;53.688;10.078;2023-11-22T00:14:59;1.98;;;1.02;;
20391;SDS011;10355;53.688;10.078;2023-11-22T00:17:43;0.95;;;0.68;;
20391;SDS011;10355;53.688;10.078;2023-11-22T00:20:26;1.45;;;0.98;;
20391;SDS011;10355;53.688;10.078;2023-11-22T00:23:09;1.15;;;0.90;;
20391;SDS011;10355;53.688;10.078;2023-11-22T00:25:52;1.58;;;0.70;;
20391;SDS011;10355;53.688;10.078;2023-11-22T00:28:34;1.63;;;0.98;;
20391;SDS011;10355;53.688;10.078;2023-11-22T00:31:17;1.55;;;0.90;;
20391;SDS011;10355;53.688;10.078;2023-11-22T00:34:02;1.45;;;0.88;;
20391;SDS011;10355;53.688;10.078;2023-11-22T00:36:44;1.85;;;1.02;;
20391;SDS011;10355;53.688;10.078;2023-11-22T00:39:27;4.35;;;1.05;;
20391;SDS011;10355;53.688;10.078;2023-11-22T00:42:10;4.03;;;0.70;;
20391;SDS011;10355;53.688;10.078;2023-11-22T00:44:53;1.15;;;0.95;;
20391;SDS011;10355;53.688;10.078;2023-11-22T00:47:36;1.05;;;0.80;;
20391;SDS011;10355;53.688;10.078;2023-11-22T00:50:20;1.63;;;1.00;;
20391;SDS011;10355;53.688;10.078;2023-11-22T00:53:03;1.88;;;1.00;;
20391;SDS011;10355;53.688;10.078;2023-11-22T00:55:46;0.98;;;0.88;;
20391;SDS011;10355;53.688;10.078;2023-11-22T00:58:29;1.27;;;0.95;;
20391;SDS011;10355;53.688;10.078;2023-11-22T01:01:11;1.48;;;0.80;;
20391;SDS011;10355;53.688;10.078;2023-11-22T01:03:54;2.05;;;0.90;;
20391;SDS011;10355;53.688;10.078;2023-11-22T01:06:38;2.63;;;1.05;;
20391;SDS011;10355;53.688;10.078;2023-11-22T01:09:22;1.80;;;0.90;;
20391;SDS011;10355;53.688;10.078;2023-11-22T01:12:05;1.63;;;0.90;;
20391;SDS011;10355;53.688;10.078;2023-11-22T01:14:50;2.55;;;1.02;;
20391;SDS011;10355;53.688;10.078;2023-11-22T01:17:33;1.25;;;0.63;;
20391;SDS011;10355;53.688;10.078;2023-11-22T01:20:16;2.00;;;0.90;;
20391;SDS011;10355;53.688;10.078;2023-11-22T01:23:01;1.75;;;0.82;;
20391;SDS011;10355;53.688;10.078;2023-11-22T01:25:44;1.30;;;0.93;;
20391;SDS011;10355;53.688;10.078;2023-11-22T01:28:27;1.00;;;0.88;;
20391;SDS011;10355;53.688;10.078;2023-11-22T01:31:10;1.35;;;1.00;;
20391;SDS011;10355;53.688;10.078;2023-11-22T01:33:54;1.30;;;0.90;;
20391;SDS011;10355;53.688;10.078;2023-11-22T01:36:39;1.50;;;0.88;;
20391;SDS011;10355;53.688;10.078;2023-11-22T01:39:25;1.15;;;0.88;;
20391;SDS011;10355;53.688;10.078;2023-11-22T01:42:09;1.23;;;0.98;;
20391;SDS011;10355;53.688;10.078;2023-11-22T01:44:52;1.27;;;0.90;;
20391;SDS011;10355;53.688;10.078;2023-11-22T01:47:35;1.00;;;0.80;;
20391;SDS011;10355;53.688;10.078;2023-11-22T01:50:18;1.67;;;1.00;;
20391;SDS011;10355;53.688;10.078;2023-11-22T01:53:01;1.00;;;0.90;;
20391;SDS011;10355;53.688;10.078;2023-11-22T01:55:45;0.75;;;0.70;;
20391;SDS011;10355;53.688;10.078;2023-11-22T01:58:28;1.50;;;0.88;;
20391;SDS011;10355;53.688;10.078;2023-11-22T02:01:12;2.67;;;0.73;;
20391;SDS011;10355;53.688;10.078;2023-11-22T02:03:55;2.65;;;0.95;;
20391;SDS011;10355;53.688;10.078;2023-11-22T02:06:38;1.30;;;1.00;;
20391;SDS011;10355;53.688;10.078;2023-11-22T02:09:21;1.27;;;0.80;;
20391;SDS011;10355;53.688;10.078;2023-11-22T02:12:06;0.98;;;0.90;;
20391;SDS011;10355;53.688;10.078;2023-11-22T02:14:49;3.10;;;1.00;;
20391;SDS011;10355;53.688;10.078;2023-11-22T02:17:32;1.70;;;0.93;;
20391;SDS011;10355;53.688;10.078;2023-11-22T02:20:16;2.58;;;0.90;;
20391;SDS011;10355;53.688;10.078;2023-11-22T02:23:03;1.65;;;0.80;;
20391;SDS011;10355;53.688;10.078;2023-11-22T02:25:46;1.00;;;0.82;;
20391;SDS011;10355;53.688;10.078;2023-11-22T02:28:29;1.15;;;0.90;;
20391;SDS011;10355;53.688;10.078;2023-11-22T02:31:11;1.27;;;0.88;;
20391;SDS011;10355;53.688;10.078;2023-11-22T02:33:54;1.15;;;0.73;;
20391;SDS011;10355;53.688;10.078;2023-11-22T02:36:38;2.50;;;0.93;;
20391;SDS011;10355;53.688;10.078;2023-11-22T02:39:23;1.70;;;1.20;;
20391;SDS011;10355;53.688;10.078;2023-11-22T02:42:10;1.25;;;0.98;;
20391;SDS011;10355;53.688;10.078;2023-11-22T02:44:53;2.72;;;1.05;;
20391;SDS011;10355;53.688;10.078;2023-11-22T02:47:36;1.70;;;0.90;;
20391;SDS011;10355;53.688;10.078;2023-11-22T02:50:19;1.25;;;1.00;;
20391;SDS011;10355;53.688;10.078;2023-11-22T02:53:02;2.97;;;1.27;;
20391;SDS011;10355;53.688;10.078;2023-11-22T02:55:46;2.08;;;1.00;;
20391;SDS011;10355;53.688;10.078;2023-11-22T02:58:29;2.22;;;1.10;;
20391;SDS011;10355;53.688;10.078;2023-11-22T03:01:12;1.30;;;1.08;;
20391;SDS011;10355;53.688;10.078;2023-11-22T03:03:55;0.90;;;0.80;;
20391;SDS011;10355;53.688;10.078;2023-11-22T03:06:40;1.95;;;1.02;;
20391;SDS011;10355;53.688;10.078;2023-11-22T03:09:23;1.92;;;1.30;;
20391;SDS011;10355;53.688;10.078;2023-11-22T03:12:08;2.25;;;1.00;;
20391;SDS011;10355;53.688;10.078;2023-11-22T03:14:54;1.60;;;1.00;;
20391;SDS011;10355;53.688;10.078;2023-11-22T03:17:40;1.75;;;1.20;;
20391;SDS011;10355;53.688;10.078;2023-11-22T03:20:23;2.22;;;1.10;;
20391;SDS011;10355;53.688;10.078;2023-11-22T03:23:06;1.35;;;1.05;;
20391;SDS011;10355;53.688;10.078;2023-11-22T03:25:52;2.65;;;1.08;;
20391;SDS011;10355;53.688;10.078;2023-11-22T03:28:36;1.02;;;0.93;;
20391;SDS011;10355;53.688;10.078;2023-11-22T03:31:20;2.75;;;1.00;;
20391;SDS011;10355;53.688;10.078;2023-11-22T03:34:04;2.92;;;1.13;;
20391;SDS011;10355;53.688;10.078;2023-11-22T03:36:47;2.53;;;1.10;;
20391;SDS011;10355;53.688;10.078;2023-11-22T03:39:30;1.70;;;1.13;;
20391;SDS011;10355;53.688;10.078;2023-11-22T03:42:15;1.70;;;1.10;;
20391;SDS011;10355;53.688;10.078;2023-11-22T03:45:00;1.33;;;0.93;;
20391;SDS011;10355;53.688;10.078;2023-11-22T03:47:43;1.50;;;1.10;;
20391;SDS011;10355;53.688;10.078;2023-11-22T03:50:26;1.63;;;1.10;;
20391;SDS011;10355;53.688;10.078;2023-11-22T03:53:09;2.05;;;1.13;;
20391;SDS011;10355;53.688;10.078;2023-11-22T03:55:52;1.10;;;0.90;;
20391;SDS011;10355;53.688;10.078;2023-11-22T03:58:35;1.48;;;0.93;;
20391;SDS011;10355;53.688;10.078;2023-11-22T04:01:19;2.03;;;1.10;;
20391;SDS011;10355;53.688;10.078;2023-11-22T04:04:02;1.20;;;0.77;;
20391;SDS011;10355;53.688;10.078;2023-11-22T04:06:45;1.67;;;1.02;;
20391;SDS011;10355;53.688;10.078;2023-11-22T04:09:28;1.75;;;0.98;;
20391;SDS011;10355;53.688;10.078;2023-11-22T04:12:10;1.75;;;0.90;;
20391;SDS011;10355;53.688;10.078;2023-11-22T04:14:53;2.25;;;0.93;;
20391;SDS011;10355;53.688;10.078;2023-11-22T04:17:38;1.27;;;1.00;;
20391;SDS011;10355;53.688;10.078;2023-11-22T04:20:21;1.52;;;1.00;;
20391;SDS011;10355;53.688;10.078;2023-11-22T04:23:04;1.35;;;1.00;;
20391;SDS011;10355;53.688;10.078;2023-11-22T04:25:47;1.92;;;1.20;;
20391;SDS011;10355;53.688;10.078;2023-11-22T04:28:30;1.90;;;1.08;;
20391;SDS011;10355;53.688;10.078;2023-11-22T04:31:13;2.63;;;0.90;;
20391;SDS011;10355;53.688;10.078;2023-11-22T04:33:58;1.48;;;1.00;;
20391;SDS011;10355;53.688;10.078;2023-11-22T04:36:42;1.38;;;1.00;;
20391;SDS011;10355;53.688;10.078;2023-11-22T04:39:27;1.08;;;0.93;;
20391;SDS011;10355;53.688;10.078;2023-11-22T04:42:10;2.15;;;1.00;;
20391;SDS011;10355;53.688;10.078;2023-11-22T04:44:53;1.50;;;1.00;;
20391;SDS011;10355;53.688;10.078;2023-11-22T04:47:36;1.92;;;1.17;;
20391;SDS011;10355;53.688;10.078;2023-11-22T04:50:20;3.70;;;1.02;;
20391;SDS011;10355;53.688;10.078;2023-11-22T04:53:05;1.10;;;1.00;;
20391;SDS011;10355;53.688;10.078;2023-11-22T04:55:48;1.27;;;1.08;;
20391;SDS011;10355;53.688;10.078;2023-11-22T04:58:31;2.78;;;1.33;;
20391;SDS011;10355;53.688;10.078;2023-11-22T05:01:14;2.55;;;1.30;;
20391;SDS011;10355;53.688;10.078;2023-11-22T05:04:01;2.38;;;1.30;;
20391;SDS011;10355;53.688;10.078;2023-11-22T05:06:46;1.40;;;1.05;;
20391;SDS011;10355;53.688;10.078;2023-11-22T05:09:29;3.25;;;1.13;;
20391;SDS011;10355;53.688;10.078;2023-11-22T05:12:11;3.53;;;1.42;;
20391;SDS011;10355;53.688;10.078;2023-11-22T05:14:55;4.53;;;1.52;;
20391;SDS011;10355;53.688;10.078;2023-11-22T05:17:38;1.80;;;1.20;;
20391;SDS011;10355;53.688;10.078;2023-11-22T05:20:21;3.17;;;1.20;;
20391;SDS011;10355;53.688;10.078;2023-11-22T05:23:06;1.45;;;1.10;;
20391;SDS011;10355;53.688;10.078;2023-11-22T05:25:48;3.08;;;1.10;;
20391;SDS011;10355;53.688;10.078;2023-11-22T05:28:31;3.05;;;1.30;;
20391;SDS011;10355;53.688;10.078;2023-11-22T05:31:15;2.33;;;1.40;;
20391;SDS011;10355;53.688;10.078;2023-11-22T05:33:57;1.95;;;1.30;;
20391;SDS011;10355;53.688;10.078;2023-11-22T05:36:40;2.80;;;1.52;;
20391;SDS011;10355;53.688;10.078;2023-11-22T05:39:24;5.50;;;1.30;;
20391;SDS011;10355;53.688;10.078;2023-11-22T05:42:07;1.50;;;1.27;;
20391;SDS011;10355;53.688;10.078;2023-11-22T05:44:50;2.75;;;0.90;;
20391;SDS011;10355;53.688;10.078;2023-11-22T05:47:33;1.77;;;1.10;;
20391;SDS011;10355;53.688;10.078;2023-11-22T05:50:16;3.03;;;1.23;;
20391;SDS011;10355;53.688;10.078;2023-11-22T05:52:59;1.63;;;1.10;;
20391;SDS011;10355;53.688;10.078;2023-11-22T05:55:43;5.43;;;1.40;;
20391;SDS011;10355;53.688;10.078;2023-11-22T05:58:26;1.70;;;1.38;;
20391;SDS011;10355;53.688;10.078;2023-11-22T06:01:09;2.17;;;1.50;;
20391;SDS011;10355;53.688;10.078;2023-11-22T06:03:53;2.63;;;1.20;;
20391;SDS011;10355;53.688;10.078;2023-11-22T06:06:36;1.52;;;1.40;;
20391;SDS011;10355;53.688;10.078;2023-11-22T06:09:19;1.40;;;1.23;;
20391;SDS011;10355;53.688;10.078;2023-11-22T06:12:03;3.40;;;1.40;;
20391;SDS011;10355;53.688;10.078;2023-11-22T06:14:46;2.28;;;1.45;;
20391;SDS011;10355;53.688;10.078;2023-11-22T06:17:29;2.97;;;1.73;;
20391;SDS011;10355;53.688;10.078;2023-11-22T06:20:12;3.33;;;1.60;;
20391;SDS011;10355;53.688;10.078;2023-11-22T06:22:55;3.33;;;2.13;;
20391;SDS011;10355;53.688;10.078;2023-11-22T06:25:38;3.40;;;1.90;;
20391;SDS011;10355;53.688;10.078;2023-11-22T06:28:24;2.53;;;1.77;;
20391;SDS011;10355;53.688;10.078;2023-11-22T06:31:08;4.82;;;2.10;;
20391;SDS011;10355;53.688;10.078;2023-11-22T06:33:51;3.03;;;2.03;;
20391;SDS011;10355;53.688;10.078;2023-11-22T06:36:34;1.88;;;1.45;;
20391;SDS011;10355;53.688;10.078;2023-11-22T06:39:17;2.28;;;1.35;;
20391;SDS011;10355;53.688;10.078;2023-11-22T06:42:01;1.58;;;1.08;;
20391;SDS011;10355;53.688;10.078;2023-11-22T06:44:45;2.15;;;1.30;;
20391;SDS011;10355;53.688;10.078;2023-11-22T06:47:29;2.40;;;1.10;;
20391;SDS011;10355;53.688;10.078;2023-11-22T06:50:12;2.13;;;1.50;;
20391;SDS011;10355;53.688;10.078;2023-11-22T06:52:55;3.42;;;1.63;;
20391;SDS011;10355;53.688;10.078;2023-11-22T06:55:38;3.75;;;1.52;;
20391;SDS011;10355;53.688;10.078;2023-11-22T06:58:21;2.22;;;1.27;;
20391;SDS011;10355;53.688;10.078;2023-11-22T07:01:05;2.38;;;1.50;;
20391;SDS011;10355;53.688;10.078;2023-11-22T07:03:48;2.67;;;1.50;;
20391;SDS011;10355;53.688;10.078;2023-11-22T07:06:32;2.40;;;1.65;;
20391;SDS011;10355;53.688;10.078;2023-11-22T07:09:15;5.57;;;2.30;;
20391;SDS011;10355;53.688;10.078;2023-11-22T07:11:58;4.22;;;2.20;;
20391;SDS011;10355;53.688;10.078;2023-11-22T07:14:41;2.85;;;1.92;;
20391;SDS011;10355;53.688;10.078;2023-11-22T07:17:26;3.28;;;2.25;;
20391;SDS011;10355;53.688;10.078;2023-11-22T07:20:10;3.60;;;2.00;;
20391;SDS011;10355;53.688;10.078;2023-11-22T07:22:58;5.20;;;1.95;;
20391;SDS011;10355;53.688;10.078;2023-11-22T07:25:41;4.03;;;2.00;;
20391;SDS011;10355;53.688;10.078;2023-11-22T07:28:25;3.00;;;1.90;;
20391;SDS011;10355;53.688;10.078;2023-11-22T07:31:07;3.60;;;1.90;;
20391;SDS011;10355;53.688;10.078;2023-11-22T07:33:52;4.15;;;2.10;;
20391;SDS011;10355;53.688;10.078;2023-11-22T07:36:35;2.42;;;1.70;;
20391;SDS011;10355;53.688;10.078;2023-11-22T07:39:19;2.58;;;1.90;;
20391;SDS011;10355;53.688;10.078;2023-11-22T07:42:08;2.70;;;2.10;;
20391;SDS011;10355;53.688;10.078;2023-11-22T07:44:51;2.45;;;1.77;;
20391;SDS011;10355;53.688;10.078;2023-11-22T07:47:38;3.95;;;2.20;;
20391;SDS011;10355;53.688;10.078;2023-11-22T07:50:24;3.58;;;1.92;;
20391;SDS011;10355;53.688;10.078;2023-11-22T07:53:07;3.50;;;2.20;;
20391;SDS011;10355;53.688;10.078;2023-11-22T07:55:50;3.13;;;2.00;;
20391;SDS011;10355;53.688;10.078;2023-11-22T07:58:33;2.60;;;2.03;;
20391;SDS011;10355;53.688;10.078;2023-11-22T08:01:17;3.70;;;2.15;;
20391;SDS011;10355;53.688;10.078;2023-11-22T08:03:59;3.72;;;2.28;;
20391;SDS011;10355;53.688;10.078;2023-11-22T08:06:45;6.35;;;2.47;;
20391;SDS011;10355;53.688;10.078;2023-11-22T08:09:28;3.55;;;2.08;;
20391;SDS011;10355;53.688;10.078;2023-11-22T08:12:14;2.97;;;2.00;;
20391;SDS011;10355;53.688;10.078;2023-11-22T08:14:56;4.18;;;2.13;;
20391;SDS011;10355;53.688;10.078;2023-11-22T08:17:39;3.38;;;2.08;;
20391;SDS011;10355;53.688;10.078;2023-11-22T08:20:22;3.35;;;1.90;;
20391;SDS011;10355;53.688;10.078;2023-11-22T08:23:08;5.22;;;2.03;;
20391;SDS011;10355;53.688;10.078;2023-11-22T08:25:52;3.13;;;2.08;;
20391;SDS011;10355;53.688;10.078;2023-11-22T08:28:35;3.55;;;2.15;;
20391;SDS011;10355;53.688;10.078;2023-11-22T08:31:19;3.55;;;2.13;;
20391;SDS011;10355;53.688;10.078;2023-11-22T08:34:02;3.72;;;1.90;;
20391;SDS011;10355;53.688;10.078;2023-11-22T08:36:45;3.20;;;2.08;;
20391;SDS011;10355;53.688;10.078;2023-11-22T08:39:30;3.22;;;2.10;;
20391;SDS011;10355;53.688;10.078;2023-11-22T08:42:14;4.45;;;2.25;;
20391;SDS011;10355;53.688;10.078;2023-11-22T08:44:59;6.93;;;2.63;;
20391;SDS011;10355;53.688;10.078;2023-11-22T08:47:41;5.65;;;2.28;;
20391;SDS011;10355;53.688;10.078;2023-11-22T08:50:25;3.53;;;2.05;;
20391;SDS011;10355;53.688;10.078;2023-11-22T08:53:07;4.50;;;2.50;;
20391;SDS011;10355;53.688;10.078;2023-11-22T08:55:52;3.10;;;2.35;;
20391;SDS011;10355;53.688;10.078;2023-11-22T08:58:36;3.75;;;2.60;;
20391;SDS011;10355;53.688;10.078;2023-11-22T09:01:18;3.25;;;2.45;;
20391;SDS011;10355;53.688;10.078;2023-11-22T09:04:01;3.30;;;2.42;;
20391;SDS011;10355;53.688;10.078;2023-11-22T09:06:44;6.95;;;3.13;;
20391;SDS011;10355;53.688;10.078;2023-11-22T09:09:28;4.35;;;2.60;;
20391;SDS011;10355;53.688;10.078;2023-11-22T09:12:14;5.75;;;2.50;;
20391;SDS011;10355;53.688;10.078;2023-11-22T09:14:57;4.25;;;2.85;;
20391;SDS011;10355;53.688;10.078;2023-11-22T09:17:41;5.55;;;2.92;;
20391;SDS011;10355;53.688;10.078;2023-11-22T09:20:26;4.50;;;3.00;;
20391;SDS011;10355;53.688;10.078;2023-11-22T09:27:07;4.63;;;3.30;;
20391;SDS011;10355;53.688;10.078;2023-11-22T09:29:53;5.57;;;2.70;;
20391;SDS011;10355;53.688;10.078;2023-11-22T09:32:36;5.25;;;3.00;;
20391;SDS011;10355;53.688;10.078;2023-11-22T09:35:20;5.55;;;3.17;;
20391;SDS011;10355;53.688;10.078;2023-11-22T09:38:04;4.90;;;2.95;;
20391;SDS011;10355;53.688;10.078;2023-11-22T09:40:48;4.30;;;2.83;;
20391;SDS011;10355;53.688;10.078;2023-11-22T09:43:31;4.53;;;3.08;;
20391;SDS011;10355;53.688;10.078;2023-11-22T09:46:15;7.53;;;3.20;;
20391;SDS011;10355;53.688;10.078;2023-11-22T09:49:01;4.22;;;3.00;;
20391;SDS011;10355;53.688;10.078;2023-11-22T09:51:49;6.15;;;2.95;;
20391;SDS011;10355;53.688;10.078;2023-11-22T09:54:33;4.68;;;3.05;;
20391;SDS011;10355;53.688;10.078;2023-11-22T09:57:17;5.90;;;3.10;;
20391;SDS011;10355;53.688;10.078;2023-11-22T10:00:01;5.72;;;2.90;;
20391;SDS011;10355;53.688;10.078;2023-11-22T10:02:50;6.18;;;3.20;;
20391;SDS011;10355;53.688;10.078;2023-11-22T10:05:34;6.97;;;3.20;;
20391;SDS011;10355;53.688;10.078;2023-11-22T10:08:16;7.18;;;3.30;;
20391;SDS011;10355;53.688;10.078;2023-11-22T10:11:00;3.97;;;2.90;;
20391;SDS011;10355;53.688;10.078;2023-11-22T10:13:43;6.55;;;3.38;;
20391;SDS011;10355;53.688;10.078;2023-11-22T10:16:27;5.60;;;3.25;;
20391;SDS011;10355;53.688;10.078;2023-11-22T10:19:11;4.93;;;3.00;;
20391;SDS011;10355;53.688;10.078;2023-11-22T10:22:02;5.13;;;3.00;;
20391;SDS011;10355;53.688;10.078;2023-11-22T10:24:46;4.93;;;3.10;;
20391;SDS011;10355;53.688;10.078;2023-11-22T10:27:29;5.53;;;3.00;;
20391;SDS011;10355;53.688;10.078;2023-11-22T10:30:12;4.65;;;2.90;;
20391;SDS011;10355;53.688;10.078;2023-11-22T10:32:56;8.82;;;3.00;;
20391;SDS011;10355;53.688;10.078;2023-11-22T10:35:43;4.88;;;3.03;;
20391;SDS011;10355;53.688;10.078;2023-11-22T10:38:26;4.22;;;2.65;;
20391;SDS011;10355;53.688;10.078;2023-11-22T10:41:09;6.50;;;2.60;;
20391;SDS011;10355;53.688;10.078;2023-11-22T10:43:52;5.82;;;2.92;;
20391;SDS011;10355;53.688;10.078;2023-11-22T10:46:38;4.18;;;2.53;;
20391;SDS011;10355;53.688;10.078;2023-11-22T10:49:21;4.45;;;3.00;;
20391;SDS011;10355;53.688;10.078;2023-11-22T10:52:05;4.55;;;2.70;;
20391;SDS011;10355;53.688;10.078;2023-11-22T10:54:50;4.60;;;2.80;;
20391;SDS011;10355;53.688;10.078;2023-11-22T10:57:39;3.45;;;2.30;;
20391;SDS011;10355;53.688;10.078;2023-11-22T11:00:23;5.85;;;2.40;;
20391;SDS011;10355;53.688;10.078;2023-11-22T11:03:11;4.07;;;2.50;;
20391;SDS011;10355;53.688;10.078;2023-11-22T11:05:57;6.43;;;2.55;;
20391;SDS011;10355;53.688;10.078;2023-11-22T11:08:42;4.15;;;2.50;;
20391;SDS011;10355;53.688;10.078;2023-11-22T11:11:27;4.00;;;2.35;;
20391;SDS011;10355;53.688;10.078;2023-11-22T11:14:10;3.95;;;2.30;;
20391;SDS011;10355;53.688;10.078;2023-11-22T11:16:54;4.57;;;2.35;;
20391;SDS011;10355;53.688;10.078;2023-11-22T11:19:40;3.88;;;2.50;;
20391;SDS011;10355;53.688;10.078;2023-11-22T11:22:23;3.95;;;2.22;;
20391;SDS011;10355;53.688;10.078;2023-11-22T11:25:07;3.22;;;1.90;;
20391;SDS011;10355;53.688;10.078;2023-11-22T11:27:57;4.00;;;2.05;;
20391;SDS011;10355;53.688;10.078;2023-11-22T11:30:41;3.75;;;2.00;;
20391;SDS011;10355;53.688;10.078;2023-11-22T11:33:26;3.58;;;2.08;;
20391;SDS011;10355;53.688;10.078;2023-11-22T11:36:09;4.40;;;1.92;;
20391;SDS011;10355;53.688;10.078;2023-11-22T11:38:55;4.05;;;2.20;;
20391;SDS011;10355;53.688;10.078;2023-11-22T11:41:40;4.18;;;2.65;;
20391;SDS011;10355;53.688;10.078;2023-11-22T11:44:24;3.63;;;2.00;;
20391;SDS011;10355;53.688;10.078;2023-11-22T11:47:10;4.05;;;1.98;;
20391;SDS011;10355;53.688;10.078;2023-11-22T11:49:52;5.50;;;2.30;;
20391;SDS011;10355;53.688;10.078;2023-11-22T11:52:38;5.65;;;1.90;;
20391;SDS011;10355;53.688;10.078;2023-11-22T11:55:21;2.90;;;1.83;;
20391;SDS011;10355;53.688;10.078;2023-11-22T11:58:06;2.47;;;1.83;;
20391;SDS011;10355;53.688;10.078;2023-11-22T12:00:50;2.90;;;1.80;;
20391;SDS011;10355;53.688;10.078;2023-11-22T12:03:35;3.25;;;2.08;;
20391;SDS011;10355;53.688;10.078;2023-11-22T12:06:18;3.88;;;2.10;;
20391;SDS011;10355;53.688;10.078;2023-11-22T12:09:03;3.20;;;2.00;;
20391;SDS011;10355;53.688;10.078;2023-11-22T12:11:46;3.80;;;1.92;;
20391;SDS011;10355;53.688;10.078;2023-11-22T12:14:31;2.85;;;1.90;;
20391;SDS011;10355;53.688;10.078;2023-11-22T12:17:14;4.38;;;1.92;;
20391;SDS011;10355;53.688;10.078;2023-11-22T12:20:08;3.00;;;1.63;;
20391;SDS011;10355;53.688;10.078;2023-11-22T12:22:52;2.35;;;1.48;;
20391;SDS011;10355;53.688;10.078;2023-11-22T12:25:35;2.83;;;1.50;;
20391;SDS011;10355;53.688;10.078;2023-11-22T12:28:18;2.83;;;1.50;;
20391;SDS011;10355;53.688;10.078;2023-11-22T12:31:09;3.08;;;1.30;;
20391;SDS011;10355;53.688;10.078;2023-11-22T12:33:52;3.70;;;1.80;;
20391;SDS011;10355;53.688;10.078;2023-11-22T12:36:35;3.00;;;1.30;;
20391;SDS011;10355;53.688;10.078;2023-11-22T12:39:19;2.95;;;1.50;;
20391;SDS011;10355;53.688;10.078;2023-11-22T12:42:02;3.45;;;1.70;;
20391;SDS011;10355;53.688;10.078;2023-11-22T12:44:52;3.28;;;1.50;;
20391;SDS011;10355;53.688;10.078;2023-11-22T12:47:36;2.22;;;1.55;;
20391;SDS011;10355;53.688;10.078;2023-11-22T12:50:29;2.75;;;1.60;;
20391;SDS011;10355;53.688;10.078;2023-11-22T12:53:12;3.20;;;1.45;;
20391;SDS011;10355;53.688;10.078;2023-11-22T12:55:56;2.30;;;1.52;;
20391;SDS011;10355;53.688;10.078;2023-11-22T12:58:39;1.98;;;1.30;;
20391;SDS011;10355;53.688;10.078;2023-11-22T13:01:22;2.55;;;1.40;;
20391;SDS011;10355;53.688;10.078;2023-11-22T13:04:07;2.90;;;1.63;;
20391;SDS011;10355;53.688;10.078;2023-11-22T13:06:50;4.25;;;1.60;;
20391;SDS011;10355;53.688;10.078;2023-11-22T13:09:35;1.92;;;1.30;;
20391;SDS011;10355;53.688;10.078;2023-11-22T13:12:18;2.20;;;1.42;;
20391;SDS011;10355;53.688;10.078;2023-11-22T13:15:01;2.60;;;1.20;;
20391;SDS011;10355;53.688;10.078;2023-11-22T13:17:45;1.52;;;1.20;;
20391;SDS011;10355;53.688;10.078;2023-11-22T13:20:30;1.88;;;1.08;;
20391;SDS011;10355;53.688;10.078;2023-11-22T13:23:12;0.88;;;0.80;;
20391;SDS011;10355;53.688;10.078;2023-11-22T13:25:56;2.17;;;0.80;;
20391;SDS011;10355;53.688;10.078;2023-11-22T13:28:39;3.40;;;0.90;;
20391;SDS011;10355;53.688;10.078;2023-11-22T13:31:22;0.80;;;0.60;;
20391;SDS011;10355;53.688;10.078;2023-11-22T13:34:05;0.80;;;0.52;;
20391;SDS011;10355;53.688;10.078;2023-11-22T13:36:49;0.90;;;0.80;;
20391;SDS011;10355;53.688;10.078;2023-11-22T13:39:32;0.80;;;0.70;;
20391;SDS011;10355;53.688;10.078;2023-11-22T13:42:15;1.77;;;0.60;;
20391;SDS011;10355;53.688;10.078;2023-11-22T13:44:58;1.50;;;0.80;;
20391;SDS011;10355;53.688;10.078;2023-11-22T13:47:41;1.17;;;0.77;;
20391;SDS011;10355;53.688;10.078;2023-11-22T13:50:25;1.05;;;0.70;;
20391;SDS011;10355;53.688;10.078;2023-11-22T13:53:10;1.00;;;0.70;;
20391;SDS011;10355;53.688;10.078;2023-11-22T13:55:53;1.13;;;0.70;;
20391;SDS011;10355;53.688;10.078;2023-11-22T13:58:37;0.60;;;0.50;;
20391;SDS011;10355;53.688;10.078;2023-11-22T14:01:20;1.75;;;0.70;;
20391;SDS011;10355;53.688;10.078;2023-11-22T14:04:04;0.98;;;0.70;;
20391;SDS011;10355;53.688;10.078;2023-11-22T14:06:47;2.28;;;0.77;;
20391;SDS011;10355;53.688;10.078;2023-11-22T14:09:31;0.73;;;0.50;;
20391;SDS011;10355;53.688;10.078;2023-11-22T14:12:17;0.60;;;0.60;;
20391;SDS011;10355;53.688;10.078;2023-11-22T14:15:01;0.75;;;0.50;;
20391;SDS011;10355;53.688;10.078;2023-11-22T14:17:45;0.50;;;0.50;;
20391;SDS011;10355;53.688;10.078;2023-11-22T14:20:31;0.70;;;0.50;;
20391;SDS011;10355;53.688;10.078;2023-11-22T14:23:16;1.25;;;0.60;;
20391;SDS011;10355;53.688;10.078;2023-11-22T14:26:00;0.80;;;0.60;;
20391;SDS011;10355;53.688;10.078;2023-11-22T14:28:44;1.42;;;0.90;;
20391;SDS011;10355;53.688;10.078;2023-11-22T14:31:28;1.50;;;0.68;;
20391;SDS011;10355;53.688;10.078;2023-11-22T14:34:11;1.08;;;0.70;;
20391;SDS011;10355;53.688;10.078;2023-11-22T14:36:54;1.33;;;0.80;;
20391;SDS011;10355;53.688;10.078;2023-11-22T14:39:37;2.00;;;0.80;;
20391;SDS011;10355;53.688;10.078;2023-11-22T14:42:21;2.10;;;0.80;;
20391;SDS011;10355;53.688;10.078;2023-11-22T14:45:06;1.58;;;0.70;;
20391;SDS011;10355;53.688;10.078;2023-11-22T14:47:49;0.73;;;0.60;;
20391;SDS011;10355;53.688;10.078;2023-11-22T14:50:33;0.77;;;0.63;;
20391;SDS011;10355;53.688;10.078;2023-11-22T14:53:16;1.33;;;0.80;;
20391;SDS011;10355;53.688;10.078;2023-11-22T14:55:59;1.23;;;0.60;;
20391;SDS011;10355;53.688;10.078;2023-11-22T14:58:44;1.02;;;0.80;;
20391;SDS011;10355;53.688;10.078;2023-11-22T15:01:35;1.55;;;0.82;;
20391;SDS011;10355;53.688;10.078;2023-11-22T15:04:18;1.52;;;0.80;;
20391;SDS011;10355;53.688;10.078;2023-11-22T15:07:00;1.98;;;0.70;;
20391;SDS011;10355;53.688;10.078;2023-11-22T15:09:43;1.55;;;0.85;;
20391;SDS011;10355;53.688;10.078;2023-11-22T15:12:27;1.60;;;0.82;;
20391;SDS011;10355;53.688;10.078;2023-11-22T15:15:13;1.50;;;1.00;;
20391;SDS011;10355;53.688;10.078;2023-11-22T15:17:56;1.83;;;0.88;;
20391;SDS011;10355;53.688;10.078;2023-11-22T15:20:39;1.38;;;0.90;;
20391;SDS011;10355;53.688;10.078;2023-11-22T15:23:22;1.20;;;0.70;;
20391;SDS011;10355;53.688;10.078;2023-11-22T15:26:05;2.58;;;1.02;;
20391;SDS011;10355;53.688;10.078;2023-11-22T15:28:48;1.92;;;1.23;;
20391;SDS011;10355;53.688;10.078;2023-11-22T15:31:32;1.50;;;0.95;;
20391;SDS011;10355;53.688;10.078;2023-11-22T15:34:16;2.15;;;1.10;;
20391;SDS011;10355;53.688;10.078;2023-11-22T15:36:59;2.35;;;1.30;;
20391;SDS011;10355;53.688;10.078;2023-11-22T15:39:42;1.83;;;1.10;;
20391;SDS011;10355;53.688;10.078;2023-11-22T15:42:25;2.90;;;1.33;;
20391;SDS011;10355;53.688;10.078;2023-11-22T15:45:08;2.70;;;1.08;;
20391;SDS011;10355;53.688;10.078;2023-11-22T15:47:53;1.50;;;1.10;;
20391;SDS011;10355;53.688;10.078;2023-11-22T15:50:36;2.30;;;1.20;;
20391;SDS011;10355;53.688;10.078;2023-11-22T15:53:19;2.45;;;1.20;;
20391;SDS011;10355;53.688;10.078;2023-11-22T15:56:01;1.92;;;1.15;;
20391;SDS011;10355;53.688;10.078;2023-11-22T15:58:45;2.53;;;1.13;;
20391;SDS011;10355;53.688;10.078;2023-11-22T16:01:28;2.72;;;1.27;;
20391;SDS011;10355;53.688;10.078;2023-11-22T16:04:12;1.77;;;1.23;;
20391;SDS011;10355;53.688;10.078;2023-11-22T16:06:57;2.10;;;1.33;;
20391;SDS011;10355;53.688;10.078;2023-11-22T16:09:39;1.75;;;1.33;;
20391;SDS011;10355;53.688;10.078;2023-11-22T16:12:25;1.88;;;1.27;;
20391;SDS011;10355;53.688;10.078;2023-11-22T16:15:08;2.08;;;1.40;;